Burton, TX (77835)

9:37 PM CST on February 28, 2015 (GMT -0600)
Four Labs Vineyards | Change Station
CLOSE
Current Station
Personal Weather Station
Location: Burton, TX
Elevation: 492 ft
Nearby Weather Stations

Elev 492 ft 30.18 °N, 96.65 °W | Updated 4 seconds ago

Overcast
Overcast
41.5 °F
Feels Like 42 °F
N
0.0
Wind Variable Wind from WNW
Gusts 0.0 mph

Today
High -- | Low -- °F
--% Chance of Precip.
Yesterday
High -- | Low -- °F
Precip. -- in
6:53 AM 6:24 PM
Waxing Gibbous, 82% visible
Pressure 30.26 in
Visibility 10.0 miles
Clouds Overcast 1500 ft
Windchill 42 °F
Dew Point 40 °F
Humidity 95%
Rainfall 0.02 in
Snow Depth Not available.
UV 0 out of 12
Pollen 8.30 out of 12
Air Quality Not available.
Flu Activity Not available.
METAR K11R 010315Z AUTO 00000KT 10SM OVC015 08/06 A3026 RMK AO2 T00780063

More Conditions Fewer Conditions

Pressure 30.26 in
Visibility 10.0 miles
Clouds Overcast 1500 ft
Windchill 42 °F
Dew Point 40 °F
Humidity 95%
Rainfall 0.02 in
Snow Depth Not available.
UV 0 out of 12
Pollen 8.30 out of 12
Air Quality Not available.
Flu Activity Not available.
METAR K11R 010315Z AUTO 00000KT 10SM OVC015 08/06 A3026 RMK AO2 T00780063

More Conditions Fewer Conditions

10-Day Weather Forecast

Almanac

Astronomy

Feb. 28, 2015 Rise Set
Actual Time
Civil Twilight
Nautical Twilight
Astronomical Twilight
Moon
Length of Visible Light
Length of Day
Tomorrow will be .
, % of the Moon is Illuminated

Today's Extremes

State Highs State Lows

Community

WunderPhotos

Upload Photos

1,801,284 photos uploaded!

WunderBlogs® & News

Nearby

Air Quality

  Air Quality AQ Index Pollutant
Not available.

Snow Depth

Station Depth Elevation

Earthquake Activity

City Distance Mag. Time & Date
Minimum magnitude displayed is 2.5.

Coastal Water Temperatures

Place Temperature

Nearby Weather Stations